sensor_id;sensor_type;location;lat;lon;timestamp;pressure;altitude;pressure_sealevel;temperature;humidity
48204;BME280;33994;50.998;5.864;2023-12-14T00:01:08;100240.66;;;7.12;100.00
48204;BME280;33994;50.998;5.864;2023-12-14T00:04:13;100245.03;;;7.08;100.00
48204;BME280;33994;50.998;5.864;2023-12-14T00:07:16;100252.84;;;7.10;100.00
48204;BME280;33994;50.998;5.864;2023-12-14T00:10:19;100254.56;;;7.11;100.00
48204;BME280;33994;50.998;5.864;2023-12-14T00:13:22;100263.25;;;7.10;100.00
48204;BME280;33994;50.998;5.864;2023-12-14T00:16:26;100263.25;;;7.10;100.00
48204;BME280;33994;50.998;5.864;2023-12-14T00:19:30;100269.31;;;7.10;100.00
48204;BME280;33994;50.998;5.864;2023-12-14T00:22:33;100270.16;;;7.11;100.00
48204;BME280;33994;50.998;5.864;2023-12-14T00:25:36;100275.38;;;7.11;100.00
48204;BME280;33994;50.998;5.864;2023-12-14T00:28:40;100284.88;;;7.13;100.00
48204;BME280;33994;50.998;5.864;2023-12-14T00:31:43;100299.59;;;7.13;100.00
48204;BME280;33994;50.998;5.864;2023-12-14T00:34:48;100297.03;;;7.11;100.00
48204;BME280;33994;50.998;5.864;2023-12-14T00:37:51;100304.78;;;7.13;100.00
48204;BME280;33994;50.998;5.864;2023-12-14T00:40:54;100306.56;;;7.11;100.00
48204;BME280;33994;50.998;5.864;2023-12-14T00:43:57;100322.16;;;7.14;100.00
48204;BME280;33994;50.998;5.864;2023-12-14T00:47:01;100328.19;;;7.16;100.00
48204;BME280;33994;50.998;5.864;2023-12-14T00:50:06;100335.13;;;7.17;100.00
48204;BME280;33994;50.998;5.864;2023-12-14T00:53:10;100347.25;;;7.18;100.00
48204;BME280;33994;50.998;5.864;2023-12-14T00:56:13;100348.13;;;7.17;100.00
48204;BME280;33994;50.998;5.864;2023-12-14T00:59:16;100350.72;;;7.17;100.00
48204;BME280;33994;50.998;5.864;2023-12-14T01:02:19;100363.72;;;7.18;100.00
48204;BME280;33994;50.998;5.864;2023-12-14T01:05:24;100377.56;;;7.19;100.00
48204;BME280;33994;50.998;5.864;2023-12-14T01:08:27;100381.06;;;7.18;100.00
48204;BME280;33994;50.998;5.864;2023-12-14T01:11:30;100388.00;;;7.16;100.00
48204;BME280;33994;50.998;5.864;2023-12-14T01:14:33;100394.06;;;7.16;100.00
48204;BME280;33994;50.998;5.864;2023-12-14T01:17:36;100399.25;;;7.16;100.00
48204;BME280;33994;50.998;5.864;2023-12-14T01:20:41;100405.34;;;7.15;100.00
48204;BME280;33994;50.998;5.864;2023-12-14T01:23:44;100413.16;;;7.15;100.00
48204;BME280;33994;50.998;5.864;2023-12-14T01:26:47;100409.69;;;7.15;100.00
48204;BME280;33994;50.998;5.864;2023-12-14T01:29:51;100420.13;;;7.10;100.00
48204;BME280;33994;50.998;5.864;2023-12-14T01:32:54;100412.31;;;7.09;100.00
48204;BME280;33994;50.998;5.864;2023-12-14T01:35:59;100426.22;;;7.06;100.00
48204;BME280;33994;50.998;5.864;2023-12-14T01:39:02;100429.75;;;6.99;100.00
48204;BME280;33994;50.998;5.864;2023-12-14T01:42:05;100431.50;;;6.95;100.00
48204;BME280;33994;50.998;5.864;2023-12-14T01:45:09;100433.28;;;6.87;100.00
48204;BME280;33994;50.998;5.864;2023-12-14T01:48:12;100442.84;;;6.84;100.00
48204;BME280;33994;50.998;5.864;2023-12-14T01:51:17;100447.16;;;6.86;100.00
48204;BME280;33994;50.998;5.864;2023-12-14T01:54:20;100456.69;;;6.84;100.00
48204;BME280;33994;50.998;5.864;2023-12-14T01:57:23;100452.38;;;6.80;100.00
48204;BME280;33994;50.998;5.864;2023-12-14T02:00:31;100466.25;;;6.74;100.00
48204;BME280;33994;50.998;5.864;2023-12-14T02:03:44;100481.88;;;6.67;100.00
48204;BME280;33994;50.998;5.864;2023-12-14T02:06:48;100486.25;;;6.65;100.00
48204;BME280;33994;50.998;5.864;2023-12-14T02:09:51;100490.56;;;6.63;100.00
48204;BME280;33994;50.998;5.864;2023-12-14T02:12:54;100500.97;;;6.61;100.00
48204;BME280;33994;50.998;5.864;2023-12-14T02:15:57;100512.25;;;6.60;100.00
48204;BME280;33994;50.998;5.864;2023-12-14T02:19:01;100513.13;;;6.61;100.00
48204;BME280;33994;50.998;5.864;2023-12-14T02:22:05;100518.31;;;6.51;100.00
48204;BME280;33994;50.998;5.864;2023-12-14T02:25:10;100534.81;;;6.46;100.00
48204;BME280;33994;50.998;5.864;2023-12-14T02:28:13;100528.75;;;6.42;100.00
48204;BME280;33994;50.998;5.864;2023-12-14T02:31:19;100538.28;;;6.40;100.00
48204;BME280;33994;50.998;5.864;2023-12-14T02:34:22;100546.09;;;6.34;100.00
48204;BME280;33994;50.998;5.864;2023-12-14T02:37:25;100559.09;;;6.29;100.00
48204;BME280;33994;50.998;5.864;2023-12-14T02:40:30;100562.53;;;6.28;100.00
48204;BME280;33994;50.998;5.864;2023-12-14T02:43:33;100566.88;;;6.28;100.00
48204;BME280;33994;50.998;5.864;2023-12-14T02:46:36;100572.06;;;6.28;100.00
48204;BME280;33994;50.998;5.864;2023-12-14T02:49:40;100572.09;;;6.29;100.00
48204;BME280;33994;50.998;5.864;2023-12-14T02:52:43;100585.94;;;6.24;100.00
48204;BME280;33994;50.998;5.864;2023-12-14T02:55:47;100589.41;;;6.15;100.00
48204;BME280;33994;50.998;5.864;2023-12-14T02:58:50;100594.59;;;6.07;100.00
48204;BME280;33994;50.998;5.864;2023-12-14T03:01:54;100595.47;;;6.06;100.00
48204;BME280;33994;50.998;5.864;2023-12-14T03:04:57;100604.13;;;6.02;100.00
48204;BME280;33994;50.998;5.864;2023-12-14T03:08:00;100617.97;;;6.00;100.00
48204;BME280;33994;50.998;5.864;2023-12-14T03:11:05;100621.44;;;5.99;100.00
48204;BME280;33994;50.998;5.864;2023-12-14T03:14:08;100620.56;;;5.98;100.00
48204;BME280;33994;50.998;5.864;2023-12-14T03:17:11;100628.34;;;6.00;100.00
48204;BME280;33994;50.998;5.864;2023-12-14T03:20:15;100630.06;;;6.01;100.00
48204;BME280;33994;50.998;5.864;2023-12-14T03:23:18;100633.53;;;6.00;100.00
48204;BME280;33994;50.998;5.864;2023-12-14T03:26:22;100634.41;;;5.99;100.00
48204;BME280;33994;50.998;5.864;2023-12-14T03:29:26;100646.53;;;5.98;100.00
48204;BME280;33994;50.998;5.864;2023-12-14T03:32:29;100653.44;;;5.99;100.00
48204;BME280;33994;50.998;5.864;2023-12-14T03:35:32;100655.16;;;5.97;100.00
48204;BME280;33994;50.998;5.864;2023-12-14T03:38:35;100659.50;;;5.92;100.00
48204;BME280;33994;50.998;5.864;2023-12-14T03:41:40;100668.13;;;5.94;100.00
48204;BME280;33994;50.998;5.864;2023-12-14T03:44:43;100658.63;;;5.90;100.00
48204;BME280;33994;50.998;5.864;2023-12-14T03:47:46;100670.75;;;5.91;100.00
48204;BME280;33994;50.998;5.864;2023-12-14T03:50:49;100671.59;;;5.86;100.00
48204;BME280;33994;50.998;5.864;2023-12-14T03:53:52;100666.41;;;5.86;100.00
48204;BME280;33994;50.998;5.864;2023-12-14T03:56:57;100668.97;;;5.82;100.00
48204;BME280;33994;50.998;5.864;2023-12-14T04:00:00;100667.28;;;5.80;100.00
48204;BME280;33994;50.998;5.864;2023-12-14T04:03:03;100677.66;;;5.83;100.00
48204;BME280;33994;50.998;5.864;2023-12-14T04:06:07;100679.38;;;5.81;100.00
48204;BME280;33994;50.998;5.864;2023-12-14T04:09:10;100692.34;;;5.79;100.00
48204;BME280;33994;50.998;5.864;2023-12-14T04:12:15;100692.34;;;5.76;100.00
48204;BME280;33994;50.998;5.864;2023-12-14T04:15:18;100700.09;;;5.75;100.00
48204;BME280;33994;50.998;5.864;2023-12-14T04:18:21;100710.50;;;5.69;100.00
48204;BME280;33994;50.998;5.864;2023-12-14T04:21:24;100711.34;;;5.69;100.00
48204;BME280;33994;50.998;5.864;2023-12-14T04:24:27;100718.25;;;5.64;100.00
48204;BME280;33994;50.998;5.864;2023-12-14T04:27:32;100719.13;;;5.65;100.00
48204;BME280;33994;50.998;5.864;2023-12-14T04:30:35;100731.22;;;5.63;100.00
48204;BME280;33994;50.998;5.864;2023-12-14T04:33:39;100731.22;;;5.63;100.00
48204;BME280;33994;50.998;5.864;2023-12-14T04:36:42;100730.34;;;5.64;100.00
48204;BME280;33994;50.998;5.864;2023-12-14T04:39:45;100728.63;;;5.61;100.00
48204;BME280;33994;50.998;5.864;2023-12-14T04:42:49;100740.72;;;5.62;100.00
48204;BME280;33994;50.998;5.864;2023-12-14T04:45:53;100739.88;;;5.62;100.00
48204;BME280;33994;50.998;5.864;2023-12-14T04:48:56;100749.31;;;5.52;100.00
48204;BME280;33994;50.998;5.864;2023-12-14T04:51:59;100753.66;;;5.51;100.00
48204;BME280;33994;50.998;5.864;2023-12-14T04:55:02;100758.81;;;5.48;100.00
48204;BME280;33994;50.998;5.864;2023-12-14T04:58:07;100759.69;;;5.47;100.00
48204;BME280;33994;50.998;5.864;2023-12-14T05:01:11;100757.94;;;5.43;100.00
48204;BME280;33994;50.998;5.864;2023-12-14T05:04:14;100767.44;;;5.43;100.00
48204;BME280;33994;50.998;5.864;2023-12-14T05:07:17;100780.41;;;5.43;100.00
48204;BME280;33994;50.998;5.864;2023-12-14T05:10:20;100785.59;;;5.43;100.00
48204;BME280;33994;50.998;5.864;2023-12-14T05:13:25;100794.25;;;5.43;100.00
48204;BME280;33994;50.998;5.864;2023-12-14T05:16:28;100808.13;;;5.45;100.00
48204;BME280;33994;50.998;5.864;2023-12-14T05:19:32;100817.63;;;5.46;100.00
48204;BME280;33994;50.998;5.864;2023-12-14T05:22:35;100822.81;;;5.48;100.00
48204;BME280;33994;50.998;5.864;2023-12-14T05:25:38;100820.19;;;5.43;100.00
48204;BME280;33994;50.998;5.864;2023-12-14T05:28:43;100827.13;;;5.41;100.00
48204;BME280;33994;50.998;5.864;2023-12-14T05:31:46;100832.28;;;5.44;100.00
48204;BME280;33994;50.998;5.864;2023-12-14T05:34:49;100839.25;;;5.47;100.00
48204;BME280;33994;50.998;5.864;2023-12-14T05:37:52;100836.63;;;5.47;100.00
48204;BME280;33994;50.998;5.864;2023-12-14T05:40:55;100841.00;;;5.49;100.00
48204;BME280;33994;50.998;5.864;2023-12-14T05:44:00;100851.34;;;5.46;100.00
48204;BME280;33994;50.998;5.864;2023-12-14T05:47:03;100857.41;;;5.45;100.00
48204;BME280;33994;50.998;5.864;2023-12-14T05:50:07;100859.09;;;5.45;100.00
48204;BME280;33994;50.998;5.864;2023-12-14T05:53:10;100878.13;;;5.42;100.00
48204;BME280;33994;50.998;5.864;2023-12-14T05:56:13;100886.78;;;5.41;100.00
48204;BME280;33994;50.998;5.864;2023-12-14T05:59:18;100890.16;;;5.37;100.00
48204;BME280;33994;50.998;5.864;2023-12-14T06:02:21;100900.53;;;5.37;100.00
48204;BME280;33994;50.998;5.864;2023-12-14T06:05:24;100914.38;;;5.36;100.00
48204;BME280;33994;50.998;5.864;2023-12-14T06:08:27;100913.47;;;5.32;100.00
48204;BME280;33994;50.998;5.864;2023-12-14T06:11:30;100921.25;;;5.31;100.00
48204;BME280;33994;50.998;5.864;2023-12-14T06:14:35;100931.59;;;5.28;100.00
48204;BME280;33994;50.998;5.864;2023-12-14T06:17:38;100948.00;;;5.25;100.00
48204;BME280;33994;50.998;5.864;2023-12-14T06:20:42;100942.78;;;5.21;100.00
48204;BME280;33994;50.998;5.864;2023-12-14T06:23:45;100950.53;;;5.18;100.00
48204;BME280;33994;50.998;5.864;2023-12-14T06:26:48;100957.44;;;5.17;100.00
48204;BME280;33994;50.998;5.864;2023-12-14T06:29:53;100959.13;;;5.14;100.00
48204;BME280;33994;50.998;5.864;2023-12-14T06:32:56;100967.78;;;5.13;100.00
48204;BME280;33994;50.998;5.864;2023-12-14T06:36:03;100966.00;;;5.08;100.00
48204;BME280;33994;50.998;5.864;2023-12-14T06:39:06;100974.66;;;5.07;100.00
48204;BME280;33994;50.998;5.864;2023-12-14T06:42:09;100980.66;;;5.05;100.00
48204;BME280;33994;50.998;5.864;2023-12-14T06:45:14;100984.94;;;5.01;100.00
48204;BME280;33994;50.998;5.864;2023-12-14T06:48:17;100986.66;;;4.99;100.00
48204;BME280;33994;50.998;5.864;2023-12-14T06:51:21;100993.50;;;4.94;100.00
48204;BME280;33994;50.998;5.864;2023-12-14T06:54:24;100993.44;;;4.91;100.00
48204;BME280;33994;50.998;5.864;2023-12-14T06:57:27;101001.19;;;4.90;100.00
48204;BME280;33994;50.998;5.864;2023-12-14T07:00:32;101006.38;;;4.90;100.00
48204;BME280;33994;50.998;5.864;2023-12-14T07:03:35;101018.47;;;4.89;100.00
48204;BME280;33994;50.998;5.864;2023-12-14T07:06:38;101015.88;;;4.89;100.00
48204;BME280;33994;50.998;5.864;2023-12-14T07:09:41;101028.81;;;4.87;100.00
48204;BME280;33994;50.998;5.864;2023-12-14T07:12:45;101036.63;;;4.89;100.00
48204;BME280;33994;50.998;5.864;2023-12-14T07:15:49;101039.22;;;4.89;100.00
48204;BME280;33994;50.998;5.864;2023-12-14T07:18:52;101043.50;;;4.87;100.00
48204;BME280;33994;50.998;5.864;2023-12-14T07:21:56;101044.41;;;4.89;100.00
48204;BME280;33994;50.998;5.864;2023-12-14T07:24:59;101050.44;;;4.90;100.00
48204;BME280;33994;50.998;5.864;2023-12-14T07:28:02;101063.41;;;4.90;100.00
48204;BME280;33994;50.998;5.864;2023-12-14T07:31:06;101067.72;;;4.91;100.00
48204;BME280;33994;50.998;5.864;2023-12-14T07:34:10;101072.91;;;4.89;100.00
48204;BME280;33994;50.998;5.864;2023-12-14T07:37:13;101077.19;;;4.87;100.00
48204;BME280;33994;50.998;5.864;2023-12-14T07:40:16;101079.81;;;4.89;100.00
48204;BME280;33994;50.998;5.864;2023-12-14T07:43:19;101089.31;;;4.88;100.00
48204;BME280;33994;50.998;5.864;2023-12-14T07:46:24;101102.28;;;4.88;100.00
48204;BME280;33994;50.998;5.864;2023-12-14T07:49:27;101105.69;;;4.87;100.00
48204;BME280;33994;50.998;5.864;2023-12-14T07:52:30;101110.06;;;4.88;100.00
48204;BME280;33994;50.998;5.864;2023-12-14T07:55:33;101123.88;;;4.89;100.00
48204;BME280;33994;50.998;5.864;2023-12-14T07:58:37;101135.06;;;4.87;100.00
48204;BME280;33994;50.998;5.864;2023-12-14T08:01:42;101130.75;;;4.86;100.00
48204;BME280;33994;50.998;5.864;2023-12-14T08:04:45;101147.19;;;4.89;100.00
48204;BME280;33994;50.998;5.864;2023-12-14T08:07:48;101161.03;;;4.89;100.00
48204;BME280;33994;50.998;5.864;2023-12-14T08:10:51;101162.72;;;4.87;100.00
48204;BME280;33994;50.998;5.864;2023-12-14T08:13:55;101169.56;;;4.83;100.00
48204;BME280;33994;50.998;5.864;2023-12-14T08:16:59;101176.53;;;4.86;100.00
48204;BME280;33994;50.998;5.864;2023-12-14T08:20:03;101179.13;;;4.86;100.00
48204;BME280;33994;50.998;5.864;2023-12-14T08:23:06;101186.06;;;4.89;100.00
48204;BME280;33994;50.998;5.864;2023-12-14T08:26:09;101187.81;;;4.91;100.00
48204;BME280;33994;50.998;5.864;2023-12-14T08:29:12;101205.16;;;4.92;100.00
48204;BME280;33994;50.998;5.864;2023-12-14T08:32:17;101211.16;;;4.91;100.00
48204;BME280;33994;50.998;5.864;2023-12-14T08:35:21;101205.97;;;4.91;100.00
48204;BME280;33994;50.998;5.864;2023-12-14T08:38:23;101218.94;;;4.91;100.00
48204;BME280;33994;50.998;5.864;2023-12-14T08:41:26;101219.78;;;4.90;100.00
48204;BME280;33994;50.998;5.864;2023-12-14T08:44:30;101221.50;;;4.88;100.00
48204;BME280;33994;50.998;5.864;2023-12-14T08:47:34;101222.31;;;4.85;100.00
48204;BME280;33994;50.998;5.864;2023-12-14T08:50:37;101216.25;;;4.85;100.00
48204;BME280;33994;50.998;5.864;2023-12-14T08:53:40;101223.19;;;4.86;100.00
48204;BME280;33994;50.998;5.864;2023-12-14T08:56:43;101224.91;;;4.87;100.00
48204;BME280;33994;50.998;5.864;2023-12-14T08:59:47;101233.59;;;4.89;100.00
48204;BME280;33994;50.998;5.864;2023-12-14T09:02:51;101239.59;;;4.86;100.00
48204;BME280;33994;50.998;5.864;2023-12-14T09:05:54;101241.34;;;4.87;100.00
48204;BME280;33994;50.998;5.864;2023-12-14T09:08:58;101253.41;;;4.85;100.00
48204;BME280;33994;50.998;5.864;2023-12-14T09:12:01;101255.19;;;4.88;100.00
48204;BME280;33994;50.998;5.864;2023-12-14T09:15:04;101266.44;;;4.90;100.00
48204;BME280;33994;50.998;5.864;2023-12-14T09:18:09;101267.38;;;4.92;100.00
48204;BME280;33994;50.998;5.864;2023-12-14T09:21:12;101286.41;;;4.93;100.00
48204;BME280;33994;50.998;5.864;2023-12-14T09:24:15;101283.81;;;4.94;100.00
48204;BME280;33994;50.998;5.864;2023-12-14T09:27:18;101297.69;;;4.98;100.00
48204;BME280;33994;50.998;5.864;2023-12-14T09:30:21;101303.75;;;4.98;100.00
48204;BME280;33994;50.998;5.864;2023-12-14T09:33:26;101308.06;;;4.98;100.00
48204;BME280;33994;50.998;5.864;2023-12-14T09:36:29;101310.69;;;4.99;100.00
48204;BME280;33994;50.998;5.864;2023-12-14T09:39:32;101313.28;;;4.99;100.00
48204;BME280;33994;50.998;5.864;2023-12-14T09:42:37;101327.13;;;5.01;100.00
48204;BME280;33994;50.998;5.864;2023-12-14T09:45:41;101328.84;;;4.99;100.00
48204;BME280;33994;50.998;5.864;2023-12-14T09:48:47;101331.44;;;4.99;100.00
48204;BME280;33994;50.998;5.864;2023-12-14T09:51:53;101328.84;;;4.99;100.00
48204;BME280;33994;50.998;5.864;2023-12-14T09:54:56;101332.38;;;5.04;100.00
48204;BME280;33994;50.998;5.864;2023-12-14T09:57:59;101338.44;;;5.05;100.00
48204;BME280;33994;50.998;5.864;2023-12-14T10:01:02;101344.47;;;5.05;100.00
48204;BME280;33994;50.998;5.864;2023-12-14T10:04:24;101349.66;;;5.05;100.00
48204;BME280;33994;50.998;5.864;2023-12-14T10:07:28;101341.00;;;5.03;100.00
48204;BME280;33994;50.998;5.864;2023-12-14T10:10:31;101349.59;;;5.02;100.00
48204;BME280;33994;50.998;5.864;2023-12-14T10:13:38;101353.97;;;5.03;100.00
48204;BME280;33994;50.998;5.864;2023-12-14T10:16:41;101355.69;;;5.03;100.00
48204;BME280;33994;50.998;5.864;2023-12-14T10:19:46;101364.28;;;5.00;100.00
48204;BME280;33994;50.998;5.864;2023-12-14T10:22:50;101373.78;;;5.00;100.00
48204;BME280;33994;50.998;5.864;2023-12-14T10:25:53;101372.91;;;4.99;100.00
48204;BME280;33994;50.998;5.864;2023-12-14T10:28:56;101379.84;;;5.00;100.00
48204;BME280;33994;50.998;5.864;2023-12-14T10:31:59;101378.94;;;4.98;100.00
48204;BME280;33994;50.998;5.864;2023-12-14T10:35:05;101385.88;;;4.99;100.00
48204;BME280;33994;50.998;5.864;2023-12-14T10:38:08;101389.34;;;5.00;100.00
48204;BME280;33994;50.998;5.864;2023-12-14T10:41:13;101402.25;;;4.97;100.00
48204;BME280;33994;50.998;5.864;2023-12-14T10:44:17;101404.78;;;4.95;100.00
48204;BME280;33994;50.998;5.864;2023-12-14T10:47:21;101409.97;;;4.95;100.00
48204;BME280;33994;50.998;5.864;2023-12-14T10:50:26;101409.97;;;4.95;100.00
48204;BME280;33994;50.998;5.864;2023-12-14T10:53:31;101421.25;;;4.97;100.00
48204;BME280;33994;50.998;5.864;2023-12-14T10:56:35;101418.69;;;4.99;100.00
48204;BME280;33994;50.998;5.864;2023-12-14T10:59:38;101419.59;;;4.99;100.00
48204;BME280;33994;50.998;5.864;2023-12-14T11:02:46;101426.56;;;5.03;100.00
48204;BME280;33994;50.998;5.864;2023-12-14T11:05:50;101427.38;;;5.02;100.00
48204;BME280;33994;50.998;5.864;2023-12-14T11:08:56;101429.94;;;4.99;100.00
48204;BME280;33994;50.998;5.864;2023-12-14T11:11:59;101427.34;;;4.99;100.00
48204;BME280;33994;50.998;5.864;2023-12-14T11:15:03;101436.03;;;5.01;100.00
48204;BME280;33994;50.998;5.864;2023-12-14T11:18:24;101438.59;;;5.00;100.00
48204;BME280;33994;50.998;5.864;2023-12-14T11:21:29;101436.88;;;5.02;100.00
48204;BME280;33994;50.998;5.864;2023-12-14T11:24:34;101436.88;;;5.02;100.00
48204;BME280;33994;50.998;5.864;2023-12-14T11:27:42;101435.22;;;5.05;100.00
48204;BME280;33994;50.998;5.864;2023-12-14T11:30:46;101439.56;;;5.06;100.00
48204;BME280;33994;50.998;5.864;2023-12-14T11:33:49;101445.63;;;5.07;100.00
48204;BME280;33994;50.998;5.864;2023-12-14T11:36:54;101441.28;;;5.06;100.00
48204;BME280;33994;50.998;5.864;2023-12-14T11:39:58;101449.91;;;5.06;100.00
48204;BME280;33994;50.998;5.864;2023-12-14T11:43:01;101451.63;;;5.04;100.00
48204;BME280;33994;50.998;5.864;2023-12-14T11:46:05;101457.69;;;5.05;100.00
48204;BME280;33994;50.998;5.864;2023-12-14T11:49:08;101460.28;;;5.03;100.00
48204;BME280;33994;50.998;5.864;2023-12-14T11:52:12;101463.78;;;5.07;100.00
48204;BME280;33994;50.998;5.864;2023-12-14T11:55:16;101466.47;;;5.12;100.00
48204;BME280;33994;50.998;5.864;2023-12-14T11:58:19;101457.84;;;5.14;100.00
48204;BME280;33994;50.998;5.864;2023-12-14T12:01:22;101467.34;;;5.14;100.00
48204;BME280;33994;50.998;5.864;2023-12-14T12:04:26;101470.78;;;5.13;100.00
48204;BME280;33994;50.998;5.864;2023-12-14T12:07:31;101476.91;;;5.18;100.00
48204;BME280;33994;50.998;5.864;2023-12-14T12:10:33;101474.31;;;5.18;100.00
48204;BME280;33994;50.998;5.864;2023-12-14T12:13:37;101470.94;;;5.22;100.00
48204;BME280;33994;50.998;5.864;2023-12-14T12:16:40;101479.56;;;5.21;100.00
48204;BME280;33994;50.998;5.864;2023-12-14T12:19:43;101477.91;;;5.24;100.00
48204;BME280;33994;50.998;5.864;2023-12-14T12:22:47;101482.28;;;5.27;100.00
48204;BME280;33994;50.998;5.864;2023-12-14T12:25:50;101479.69;;;5.28;100.00
48204;BME280;33994;50.998;5.864;2023-12-14T12:28:53;101486.69;;;5.31;100.00
48204;BME280;33994;50.998;5.864;2023-12-14T12:31:56;101489.31;;;5.34;100.00
48204;BME280;33994;50.998;5.864;2023-12-14T12:34:59;101487.69;;;5.41;100.00
48204;BME280;33994;50.998;5.864;2023-12-14T12:38:03;101501.66;;;5.47;100.00
48204;BME280;33994;50.998;5.864;2023-12-14T12:41:06;101497.38;;;5.49;100.00
48204;BME280;33994;50.998;5.864;2023-12-14T12:44:09;101498.31;;;5.56;100.00
48204;BME280;33994;50.998;5.864;2023-12-14T12:47:13;101503.44;;;5.51;99.29
48204;BME280;33994;50.998;5.864;2023-12-14T12:50:16;101504.28;;;5.49;99.03
48204;BME280;33994;50.998;5.864;2023-12-14T12:53:21;101493.06;;;5.51;98.48
48204;BME280;33994;50.998;5.864;2023-12-14T12:56:25;101505.28;;;5.58;98.43
48204;BME280;33994;50.998;5.864;2023-12-14T12:59:28;101496.63;;;5.58;97.26
48204;BME280;33994;50.998;5.864;2023-12-14T13:02:31;101502.63;;;5.55;96.83
48204;BME280;33994;50.998;5.864;2023-12-14T13:05:34;101502.63;;;5.55;96.22
48204;BME280;33994;50.998;5.864;2023-12-14T13:08:38;101514.84;;;5.61;96.28
48204;BME280;33994;50.998;5.864;2023-12-14T13:11:41;101523.50;;;5.62;95.67
48204;BME280;33994;50.998;5.864;2023-12-14T13:14:44;101529.56;;;5.62;95.76
48204;BME280;33994;50.998;5.864;2023-12-14T13:17:47;101541.63;;;5.58;95.00
48204;BME280;33994;50.998;5.864;2023-12-14T13:20:50;101549.41;;;5.60;94.90
48204;BME280;33994;50.998;5.864;2023-12-14T13:23:55;101547.78;;;5.65;95.23
48204;BME280;33994;50.998;5.864;2023-12-14T13:26:59;101553.88;;;5.67;95.29
48204;BME280;33994;50.998;5.864;2023-12-14T13:30:02;101552.19;;;5.69;94.92
48204;BME280;33994;50.998;5.864;2023-12-14T13:33:05;101559.97;;;5.71;95.43
48204;BME280;33994;50.998;5.864;2023-12-14T13:36:09;101561.69;;;5.69;94.98
48204;BME280;33994;50.998;5.864;2023-12-14T13:39:14;101567.75;;;5.69;94.63
48204;BME280;33994;50.998;5.864;2023-12-14T13:42:17;101584.13;;;5.67;94.64
48204;BME280;33994;50.998;5.864;2023-12-14T13:45:20;101585.72;;;5.58;93.73
48204;BME280;33994;50.998;5.864;2023-12-14T13:48:24;101594.09;;;5.42;92.82
48204;BME280;33994;50.998;5.864;2023-12-14T13:51:27;101598.28;;;5.35;93.06
48204;BME280;33994;50.998;5.864;2023-12-14T13:54:31;101608.59;;;5.31;92.46
48204;BME280;33994;50.998;5.864;2023-12-14T13:57:34;101610.19;;;5.24;92.05
48204;BME280;33994;50.998;5.864;2023-12-14T14:00:37;101610.06;;;5.18;92.37
48204;BME280;33994;50.998;5.864;2023-12-14T14:03:41;101616.97;;;5.18;92.47
48204;BME280;33994;50.998;5.864;2023-12-14T14:06:45;101627.41;;;5.21;93.39
48204;BME280;33994;50.998;5.864;2023-12-14T14:09:49;101626.53;;;5.22;93.15
48204;BME280;33994;50.998;5.864;2023-12-14T14:12:53;101640.28;;;5.18;92.87
48204;BME280;33994;50.998;5.864;2023-12-14T14:15:56;101644.63;;;5.17;92.84
48204;BME280;33994;50.998;5.864;2023-12-14T14:18:59;101641.94;;;5.13;92.61
48204;BME280;33994;50.998;5.864;2023-12-14T14:22:03;101650.56;;;5.12;92.07
48204;BME280;33994;50.998;5.864;2023-12-14T14:25:08;101653.97;;;5.09;92.27
48204;BME280;33994;50.998;5.864;2023-12-14T14:28:11;101660.00;;;5.08;92.26
48204;BME280;33994;50.998;5.864;2023-12-14T14:31:15;101660.88;;;5.08;92.38
48204;BME280;33994;50.998;5.864;2023-12-14T14:34:18;101668.63;;;5.07;92.29
48204;BME280;33994;50.998;5.864;2023-12-14T14:37:21;101676.44;;;5.08;92.58
48204;BME280;33994;50.998;5.864;2023-12-14T14:40:26;101682.47;;;5.09;92.33
48204;BME280;33994;50.998;5.864;2023-12-14T14:43:29;101677.28;;;5.09;92.55
48204;BME280;33994;50.998;5.864;2023-12-14T14:46:33;101686.78;;;5.07;92.37
48204;BME280;33994;50.998;5.864;2023-12-14T14:49:36;101685.84;;;5.05;92.60
48204;BME280;33994;50.998;5.864;2023-12-14T14:52:40;101695.44;;;5.07;92.82
48204;BME280;33994;50.998;5.864;2023-12-14T14:55:44;101700.63;;;5.07;93.22
48204;BME280;33994;50.998;5.864;2023-12-14T14:58:47;101702.34;;;5.08;93.04
48204;BME280;33994;50.998;5.864;2023-12-14T15:01:50;101700.63;;;5.07;93.16
48204;BME280;33994;50.998;5.864;2023-12-14T15:04:54;101704.97;;;5.10;93.74
48204;BME280;33994;50.998;5.864;2023-12-14T15:07:57;101705.88;;;5.12;94.38
48204;BME280;33994;50.998;5.864;2023-12-14T15:11:01;101718.06;;;5.15;94.12
48204;BME280;33994;50.998;5.864;2023-12-14T15:14:04;101725.88;;;5.18;94.32
48204;BME280;33994;50.998;5.864;2023-12-14T15:17:08;101729.41;;;5.20;94.58
48204;BME280;33994;50.998;5.864;2023-12-14T15:20:11;101736.31;;;5.19;94.91
48204;BME280;33994;50.998;5.864;2023-12-14T15:23:14;101734.50;;;5.17;95.29
48204;BME280;33994;50.998;5.864;2023-12-14T15:26:19;101747.47;;;5.17;95.44
48204;BME280;33994;50.998;5.864;2023-12-14T15:29:22;101749.22;;;5.18;95.37
48204;BME280;33994;50.998;5.864;2023-12-14T15:32:25;101753.53;;;5.17;95.74
48204;BME280;33994;50.998;5.864;2023-12-14T15:35:28;101757.06;;;5.21;95.58
48204;BME280;33994;50.998;5.864;2023-12-14T15:38:31;101763.09;;;5.18;95.50
48204;BME280;33994;50.998;5.864;2023-12-14T15:41:36;101766.59;;;5.22;95.63
48204;BME280;33994;50.998;5.864;2023-12-14T15:44:39;101770.97;;;5.23;95.77
48204;BME280;33994;50.998;5.864;2023-12-14T15:47:42;101770.03;;;5.21;95.14
48204;BME280;33994;50.998;5.864;2023-12-14T15:50:46;101781.28;;;5.21;95.81
48204;BME280;33994;50.998;5.864;2023-12-14T15:53:49;101776.97;;;5.22;95.84
48204;BME280;33994;50.998;5.864;2023-12-14T15:56:54;101786.47;;;5.21;95.88
48204;BME280;33994;50.998;5.864;2023-12-14T15:59:57;101788.13;;;5.18;95.89
48204;BME280;33994;50.998;5.864;2023-12-14T16:03:00;101792.41;;;5.16;95.90